createdAt,value
2022-12-29T00:02:00.247Z,5.28
2022-12-29T00:04:26.876Z,5.32
2022-12-29T00:06:54.633Z,5.33
2022-12-29T00:09:21.580Z,5.24
2022-12-29T00:11:48.443Z,5.17
2022-12-29T00:14:33.687Z,5.08
2022-12-29T00:17:00.503Z,5.11
2022-12-29T00:19:46.113Z,5.13
2022-12-29T00:22:33.725Z,5.15
2022-12-29T00:25:19.985Z,5.10
2022-12-29T00:28:07.407Z,4.99
2022-12-29T00:30:55.387Z,4.93
2022-12-29T00:33:44.669Z,4.97
2022-12-29T00:36:14.551Z,5.02
2022-12-29T00:39:04.615Z,5.02
2022-12-29T00:41:49.932Z,4.98
2022-12-29T00:44:16.859Z,4.94
2022-12-29T00:46:44.875Z,4.94
2022-12-29T00:49:31.993Z,5.02
2022-12-29T00:52:07.013Z,5.07
2022-12-29T00:54:36.247Z,5.01
2022-12-29T00:57:04.302Z,4.95
2022-12-29T00:59:31.609Z,4.89
2022-12-29T01:01:58.654Z,5.01
2022-12-29T01:04:27.409Z,5.04
2022-12-29T01:06:54.398Z,5.16
2022-12-29T01:09:40.289Z,5.16
2022-12-29T01:12:09.487Z,5.12
2022-12-29T01:14:37.147Z,5.11
2022-12-29T01:17:04.974Z,5.18
2022-12-29T01:19:33.201Z,5.17
2022-12-29T01:22:01.144Z,5.11
2022-12-29T01:24:28.833Z,5.12
2022-12-29T01:26:55.806Z,4.98
2022-12-29T01:29:23.005Z,5.18
2022-12-29T01:31:50.850Z,5.15
2022-12-29T01:34:18.836Z,5.09
2022-12-29T01:36:45.601Z,5.08
2022-12-29T01:39:13.308Z,5.04
2022-12-29T01:41:41.128Z,5.16
2022-12-29T01:44:45.387Z,5.13
2022-12-29T01:47:12.106Z,5.18
2022-12-29T01:49:39.503Z,5.13
2022-12-29T01:52:09.080Z,5.04
2022-12-29T01:54:43.680Z,5.10
2022-12-29T01:57:16.739Z,5.10
2022-12-29T01:59:52.148Z,5.18
2022-12-29T02:02:19.119Z,5.14
2022-12-29T02:04:45.722Z,5.11
2022-12-29T02:07:20.552Z,5.09
2022-12-29T02:09:49.917Z,5.15
2022-12-29T02:12:18.921Z,5.10
2022-12-29T02:14:46.512Z,5.11
2022-12-29T02:17:19.807Z,5.09
2022-12-29T02:20:20.509Z,5.12
2022-12-29T02:23:24.277Z,5.19
2022-12-29T02:26:15.421Z,5.22
2022-12-29T02:29:13.177Z,5.28
2022-12-29T02:31:52.146Z,5.23
2022-12-29T02:34:43.515Z,5.19
2022-12-29T02:37:40.254Z,5.20
2022-12-29T02:40:20.085Z,5.13
2022-12-29T02:42:51.884Z,5.12
2022-12-29T02:45:31.306Z,5.19
2022-12-29T02:48:04.641Z,5.20
2022-12-29T02:50:39.059Z,5.20
2022-12-29T02:53:10.300Z,5.21
2022-12-29T02:55:36.964Z,5.17
2022-12-29T02:58:09.560Z,5.20
2022-12-29T03:00:49.484Z,5.16
2022-12-29T03:03:34.202Z,5.12
2022-12-29T03:06:03.919Z,5.15
2022-12-29T03:08:40.172Z,5.17
2022-12-29T03:11:32.285Z,5.17
2022-12-29T03:14:44.801Z,5.22
2022-12-29T03:17:40.346Z,5.12
2022-12-29T03:20:18.564Z,5.14
2022-12-29T03:22:50.364Z,5.11
2022-12-29T03:25:39.172Z,5.16
2022-12-29T03:28:19.169Z,5.23
2022-12-29T03:30:48.216Z,5.12
2022-12-29T03:33:22.777Z,5.15
2022-12-29T03:35:53.032Z,5.07
2022-12-29T03:38:30.735Z,5.23
2022-12-29T03:41:00.575Z,5.17
2022-12-29T03:43:30.319Z,5.19
2022-12-29T03:45:57.504Z,5.16
2022-12-29T03:48:24.634Z,5.07
2022-12-29T03:50:54.568Z,5.20
2022-12-29T03:53:23.238Z,5.12
2022-12-29T03:55:50.613Z,5.10
2022-12-29T03:58:17.327Z,5.10
2022-12-29T04:01:03.625Z,5.12
2022-12-29T04:03:32.929Z,5.15
2022-12-29T04:05:59.597Z,5.09
2022-12-29T04:08:28.227Z,5.16
2022-12-29T04:10:54.968Z,5.17
2022-12-29T04:13:24.043Z,5.21
2022-12-29T04:15:52.665Z,5.08
2022-12-29T04:18:19.368Z,5.11
2022-12-29T04:21:01.764Z,5.22
2022-12-29T04:23:31.612Z,5.21
2022-12-29T04:25:58.799Z,5.08
2022-12-29T04:28:26.979Z,5.02
2022-12-29T04:31:05.118Z,5.07
2022-12-29T04:33:37.350Z,5.00
2022-12-29T04:36:04.419Z,5.02
2022-12-29T04:38:31.557Z,5.07
2022-12-29T04:41:01.580Z,5.06
2022-12-29T04:43:30.141Z,5.03
2022-12-29T04:46:17.176Z,5.00
2022-12-29T04:48:53.073Z,4.97
2022-12-29T04:51:35.484Z,4.94
2022-12-29T04:54:02.390Z,4.97
2022-12-29T04:56:29.789Z,4.99
2022-12-29T04:58:58.092Z,5.05
2022-12-29T05:01:24.711Z,5.16
2022-12-29T05:03:52.950Z,5.15
2022-12-29T05:06:19.653Z,5.16
2022-12-29T05:08:46.391Z,5.10
2022-12-29T05:11:13.101Z,5.02
2022-12-29T05:13:40.109Z,4.99
2022-12-29T05:16:07.022Z,4.93
2022-12-29T05:18:33.772Z,4.84
2022-12-29T05:21:00.516Z,4.77
2022-12-29T05:23:28.349Z,4.80
2022-12-29T05:25:59.829Z,4.80
2022-12-29T05:28:32.006Z,4.90
2022-12-29T05:31:04.939Z,4.96
2022-12-29T05:33:32.553Z,4.98
2022-12-29T05:36:10.428Z,5.07
2022-12-29T05:38:41.140Z,5.11
2022-12-29T05:41:07.810Z,5.13
2022-12-29T05:43:46.628Z,5.10
2022-12-29T05:46:28.826Z,5.06
2022-12-29T05:49:08.604Z,5.09
2022-12-29T05:51:47.936Z,5.11
2022-12-29T05:54:14.720Z,4.99
2022-12-29T05:56:41.652Z,5.06
2022-12-29T05:59:09.254Z,5.01
2022-12-29T06:01:37.304Z,5.11
2022-12-29T06:04:04.268Z,5.16
2022-12-29T06:06:31.953Z,5.08
2022-12-29T06:08:58.895Z,5.02
2022-12-29T06:11:25.619Z,4.96
2022-12-29T06:13:55.915Z,5.06
2022-12-29T06:16:24.063Z,5.02
2022-12-29T06:18:54.534Z,4.97
2022-12-29T06:21:22.299Z,4.93
2022-12-29T06:23:49.002Z,4.97
2022-12-29T06:26:15.801Z,4.89
2022-12-29T06:28:43.838Z,4.89
2022-12-29T06:31:12.578Z,4.87
2022-12-29T06:33:40.076Z,4.89
2022-12-29T06:36:07.322Z,4.90
2022-12-29T06:38:34.068Z,4.80
2022-12-29T06:41:00.738Z,4.83
2022-12-29T06:43:46.050Z,4.86
2022-12-29T06:46:21.216Z,4.86
2022-12-29T06:48:47.922Z,4.94
2022-12-29T06:51:14.538Z,4.94
2022-12-29T06:53:41.397Z,4.92
2022-12-29T06:56:08.144Z,4.96
2022-12-29T06:58:34.800Z,4.86
2022-12-29T07:01:01.420Z,4.75
2022-12-29T07:03:28.244Z,4.69
2022-12-29T07:05:55.446Z,4.79
2022-12-29T07:08:22.167Z,4.76
2022-12-29T07:10:48.790Z,4.73
2022-12-29T07:13:15.513Z,4.64
2022-12-29T07:15:42.358Z,4.51
2022-12-29T07:18:09.034Z,4.63
2022-12-29T07:20:38.158Z,4.72
2022-12-29T07:23:04.933Z,4.60
2022-12-29T07:25:31.590Z,4.67
2022-12-29T07:27:58.278Z,4.77
2022-12-29T07:30:25.190Z,4.75
2022-12-29T07:32:52.032Z,4.72
2022-12-29T07:35:18.702Z,4.64
2022-12-29T07:37:45.384Z,4.62
2022-12-29T07:40:12.344Z,4.58
2022-12-29T07:42:39.097Z,4.69
2022-12-29T07:45:10.207Z,4.74
2022-12-29T07:47:51.419Z,4.70
2022-12-29T07:50:18.175Z,4.59
2022-12-29T07:52:45.736Z,4.65
2022-12-29T07:55:12.494Z,4.73
2022-12-29T07:57:39.435Z,4.72
2022-12-29T08:00:06.699Z,4.67
2022-12-29T08:02:39.154Z,4.69
2022-12-29T08:05:06.660Z,4.65
2022-12-29T08:07:33.338Z,4.68
2022-12-29T08:10:00.237Z,4.77
2022-12-29T08:12:26.792Z,4.87
2022-12-29T08:14:53.576Z,4.95
2022-12-29T08:17:20.274Z,4.94
2022-12-29T08:19:46.891Z,4.92
2022-12-29T08:22:15.400Z,4.94
2022-12-29T08:24:42.201Z,4.97
2022-12-29T08:27:16.215Z,5.06
2022-12-29T08:29:46.976Z,5.16
2022-12-29T08:32:13.914Z,5.18
2022-12-29T08:34:40.652Z,5.23
2022-12-29T08:37:07.301Z,5.26
2022-12-29T08:39:33.965Z,5.30
2022-12-29T08:42:00.671Z,5.31
2022-12-29T08:44:27.486Z,5.38
2022-12-29T08:46:54.237Z,5.37
2022-12-29T08:49:20.925Z,5.40
2022-12-29T08:51:47.655Z,5.49
2022-12-29T08:54:14.577Z,5.50
2022-12-29T08:56:41.340Z,5.60
2022-12-29T08:59:08.790Z,5.63
2022-12-29T09:01:37.494Z,5.65
2022-12-29T09:04:14.753Z,5.59
2022-12-29T09:06:42.086Z,5.67
2022-12-29T09:09:08.745Z,5.65
2022-12-29T09:11:35.819Z,5.72
2022-12-29T09:14:02.753Z,5.65
2022-12-29T09:16:29.523Z,5.64
2022-12-29T09:18:56.203Z,5.65
2022-12-29T09:21:22.948Z,5.62
2022-12-29T09:23:49.885Z,5.64
2022-12-29T09:26:16.526Z,5.65
2022-12-29T09:28:43.370Z,5.68
2022-12-29T09:31:10.247Z,5.68
2022-12-29T09:33:37.167Z,5.73
2022-12-29T09:36:04.533Z,5.72
2022-12-29T09:38:31.449Z,5.70
2022-12-29T09:41:07.469Z,5.73
2022-12-29T09:44:04.778Z,5.77
2022-12-29T09:47:01.853Z,5.82
2022-12-29T09:49:43.830Z,5.86
2022-12-29T09:52:16.461Z,5.85
2022-12-29T09:55:00.089Z,5.88
2022-12-29T09:57:48.385Z,5.94
2022-12-29T10:00:21.536Z,5.97
2022-12-29T10:02:53.209Z,5.96
2022-12-29T10:05:47.405Z,5.98
2022-12-29T10:08:22.801Z,5.99
2022-12-29T10:11:04.311Z,6.00
2022-12-29T10:13:42.884Z,6.05
2022-12-29T10:16:38.660Z,6.09
2022-12-29T10:19:13.950Z,6.10
2022-12-29T10:22:03.710Z,6.17
2022-12-29T10:24:32.805Z,6.22
2022-12-29T10:27:00.357Z,6.33
2022-12-29T10:29:38.782Z,6.35
2022-12-29T10:32:19.685Z,6.35
2022-12-29T10:34:52.253Z,6.33
2022-12-29T10:37:18.931Z,6.32
2022-12-29T10:39:56.143Z,6.29
2022-12-29T10:42:38.429Z,6.38
2022-12-29T10:45:06.582Z,6.37
2022-12-29T10:47:43.596Z,6.50
2022-12-29T10:50:13.444Z,6.53
2022-12-29T10:52:41.605Z,6.50
2022-12-29T10:55:20.339Z,6.47
2022-12-29T10:57:48.200Z,6.58
2022-12-29T11:00:17.637Z,6.58
2022-12-29T11:02:59.598Z,6.53
2022-12-29T11:05:59.156Z,6.55
2022-12-29T11:08:29.361Z,6.63
2022-12-29T11:11:02.176Z,6.64
2022-12-29T11:13:36.733Z,6.64
2022-12-29T11:16:06.056Z,6.63
2022-12-29T11:18:38.332Z,6.69
2022-12-29T11:21:08.411Z,6.83
2022-12-29T11:23:36.818Z,6.87
2022-12-29T11:26:17.231Z,6.96
2022-12-29T11:29:04.165Z,6.91
2022-12-29T11:31:31.007Z,6.82
2022-12-29T11:33:57.698Z,6.79
2022-12-29T11:36:25.878Z,6.70
2022-12-29T11:38:55.621Z,6.74
2022-12-29T11:41:30.983Z,6.71
2022-12-29T11:44:01.164Z,6.80
2022-12-29T11:46:27.930Z,6.85
2022-12-29T11:48:59.259Z,6.83
2022-12-29T11:51:40.296Z,6.79
2022-12-29T11:54:07.183Z,6.81
2022-12-29T11:56:41.329Z,6.79
2022-12-29T11:59:42.047Z,6.83
2022-12-29T12:02:43.690Z,6.89
2022-12-29T12:06:04.738Z,6.92
2022-12-29T12:08:44.953Z,7.03
2022-12-29T12:11:26.381Z,7.14
2022-12-29T12:14:01.473Z,7.21
2022-12-29T12:16:40.485Z,7.39
2022-12-29T12:19:29.265Z,7.48
2022-12-29T12:22:21.179Z,7.62
2022-12-29T12:25:00.081Z,7.75
2022-12-29T12:27:32.588Z,7.80
2022-12-29T12:30:19.257Z,7.78
2022-12-29T12:32:45.881Z,7.78
2022-12-29T12:35:22.279Z,7.76
2022-12-29T12:37:55.465Z,7.89
2022-12-29T12:40:49.930Z,7.90
2022-12-29T12:43:31.695Z,7.96
2022-12-29T12:46:01.513Z,8.03
2022-12-29T12:48:49.270Z,8.16
2022-12-29T12:51:30.420Z,8.21
2022-12-29T12:54:13.747Z,8.09
2022-12-29T12:56:52.350Z,8.17
2022-12-29T13:00:00.153Z,8.05
2022-12-29T13:02:45.390Z,8.07
2022-12-29T13:05:33.692Z,8.01
2022-12-29T13:08:18.774Z,7.99
2022-12-29T13:11:17.052Z,7.99
2022-12-29T13:14:08.710Z,7.95
2022-12-29T13:17:00.329Z,7.94
2022-12-29T13:19:29.601Z,7.91
2022-12-29T13:22:21.476Z,7.91
2022-12-29T13:25:17.275Z,7.88
2022-12-29T13:28:25.582Z,7.81
2022-12-29T13:30:55.242Z,7.82
2022-12-29T13:33:47.434Z,7.82
2022-12-29T13:36:22.833Z,7.87
2022-12-29T13:39:16.174Z,7.81
2022-12-29T13:41:51.273Z,7.81
2022-12-29T13:44:28.031Z,7.79
2022-12-29T13:47:00.004Z,7.82
2022-12-29T13:49:28.063Z,7.71
2022-12-29T13:52:05.386Z,7.72
2022-12-29T13:54:40.785Z,7.72
2022-12-29T13:57:16.944Z,7.70
2022-12-29T13:59:53.113Z,7.78
2022-12-29T14:02:19.836Z,7.74
2022-12-29T14:05:25.165Z,7.80
2022-12-29T14:08:04.099Z,7.75
2022-12-29T14:10:39.473Z,7.69
2022-12-29T14:13:16.678Z,7.71
2022-12-29T14:15:51.726Z,7.69
2022-12-29T14:18:27.537Z,7.68
2022-12-29T14:20:58.708Z,7.66
2022-12-29T14:23:35.627Z,7.65
2022-12-29T14:26:08.140Z,7.72
2022-12-29T14:28:40.377Z,7.74
2022-12-29T14:31:30.414Z,7.68
2022-12-29T14:34:12.445Z,7.65
2022-12-29T14:36:41.702Z,7.64
2022-12-29T14:39:43.495Z,7.62
2022-12-29T14:42:10.207Z,7.63
2022-12-29T14:44:49.381Z,7.61
2022-12-29T14:47:44.155Z,7.63
2022-12-29T14:50:33.442Z,7.66
2022-12-29T14:53:06.280Z,7.64
2022-12-29T14:55:43.778Z,7.63
2022-12-29T14:58:33.570Z,7.62
2022-12-29T15:01:01.463Z,7.60
2022-12-29T15:03:37.316Z,7.59
2022-12-29T15:06:13.727Z,7.57
2022-12-29T15:08:47.808Z,7.52
2022-12-29T15:11:18.205Z,7.45
2022-12-29T15:13:45.832Z,7.52
2022-12-29T15:16:27.499Z,7.52
2022-12-29T15:18:54.790Z,7.49
2022-12-29T15:21:30.932Z,7.42
2022-12-29T15:23:58.228Z,7.35
2022-12-29T15:26:39.078Z,7.28
2022-12-29T15:29:06.211Z,7.34
2022-12-29T15:31:32.855Z,7.35
2022-12-29T15:34:11.459Z,7.37
2022-12-29T15:36:40.355Z,7.33
2022-12-29T15:39:21.259Z,7.18
2022-12-29T15:42:02.732Z,7.28
2022-12-29T15:44:40.487Z,7.27
2022-12-29T15:47:15.399Z,7.28
2022-12-29T15:49:44.699Z,7.21
2022-12-29T15:52:12.137Z,7.24
2022-12-29T15:54:43.829Z,7.23
2022-12-29T15:57:24.254Z,7.14
2022-12-29T15:59:51.418Z,7.10
2022-12-29T16:02:19.502Z,7.07
2022-12-29T16:05:16.005Z,7.04
2022-12-29T16:07:41.536Z,6.99
2022-12-29T16:10:26.641Z,7.07
2022-12-29T16:12:53.704Z,7.16
2022-12-29T16:15:20.635Z,7.16
2022-12-29T16:17:54.345Z,7.10
2022-12-29T16:20:25.846Z,7.06
2022-12-29T16:23:01.567Z,7.03
2022-12-29T16:25:35.773Z,7.04
2022-12-29T16:28:15.726Z,6.99
2022-12-29T16:30:42.476Z,6.81
2022-12-29T16:33:33.670Z,6.95
2022-12-29T16:36:00.389Z,6.89
2022-12-29T16:38:34.072Z,6.85
2022-12-29T16:41:05.676Z,6.89
2022-12-29T16:43:42.757Z,6.61
2022-12-29T16:46:29.933Z,6.77
2022-12-29T16:48:58.428Z,6.69
2022-12-29T16:51:34.170Z,6.61
2022-12-29T16:54:01.875Z,6.64
2022-12-29T16:56:32.933Z,6.67
2022-12-29T16:59:08.705Z,6.68
2022-12-29T17:01:40.173Z,6.59
2022-12-29T17:04:12.232Z,6.59
2022-12-29T17:06:39.334Z,6.61
2022-12-29T17:09:32.039Z,6.64
2022-12-29T17:12:10.363Z,6.72
2022-12-29T17:14:46.706Z,6.59
2022-12-29T17:17:27.880Z,6.53
2022-12-29T17:20:03.962Z,6.52
2022-12-29T17:22:31.648Z,6.55
2022-12-29T17:25:00.806Z,6.54
2022-12-29T17:27:50.775Z,6.49
2022-12-29T17:30:20.814Z,6.46
2022-12-29T17:32:53.118Z,6.54
2022-12-29T17:35:21.941Z,6.41
2022-12-29T17:37:49.446Z,6.47
2022-12-29T17:40:22.342Z,6.43
2022-12-29T17:42:52.376Z,6.34
2022-12-29T17:45:32.271Z,6.27
2022-12-29T17:48:02.880Z,6.38
2022-12-29T17:50:31.584Z,6.27
2022-12-29T17:53:07.218Z,6.23
2022-12-29T17:55:38.288Z,6.33
2022-12-29T17:58:27.019Z,6.36
2022-12-29T18:00:56.215Z,6.28
2022-12-29T18:03:30.837Z,6.33
2022-12-29T18:05:58.144Z,6.27
2022-12-29T18:08:24.807Z,6.38
2022-12-29T18:10:53.920Z,6.33
2022-12-29T18:13:33.567Z,6.24
2022-12-29T18:16:06.103Z,6.24
2022-12-29T18:18:32.742Z,6.21
2022-12-29T18:21:00.327Z,6.21
2022-12-29T18:23:32.660Z,6.20
2022-12-29T18:26:03.507Z,6.16
2022-12-29T18:28:30.497Z,6.23
2022-12-29T18:30:59.114Z,6.27
2022-12-29T18:33:26.798Z,6.27
2022-12-29T18:36:05.303Z,6.22
2022-12-29T18:38:32.167Z,6.25
2022-12-29T18:40:59.355Z,6.15
2022-12-29T18:43:26.671Z,6.22
2022-12-29T18:45:53.303Z,6.19
2022-12-29T18:48:20.586Z,6.20
2022-12-29T18:50:51.774Z,6.24
2022-12-29T18:53:23.779Z,6.27
2022-12-29T18:55:54.211Z,6.31
2022-12-29T18:58:21.058Z,6.22
2022-12-29T19:00:47.803Z,6.23
2022-12-29T19:03:16.743Z,6.28
2022-12-29T19:05:45.217Z,6.31
2022-12-29T19:08:12.751Z,6.35
2022-12-29T19:10:42.024Z,6.36
2022-12-29T19:13:16.511Z,6.36
2022-12-29T19:15:44.055Z,6.29
2022-12-29T19:18:43.238Z,6.36
2022-12-29T19:21:03.209Z,6.31
2022-12-29T19:23:29.810Z,6.35
2022-12-29T19:25:56.514Z,6.22
2022-12-29T19:28:28.196Z,6.21
2022-12-29T19:30:59.715Z,6.08
2022-12-29T19:33:26.594Z,6.13
2022-12-29T19:35:53.294Z,6.19
2022-12-29T19:38:20.162Z,6.20
2022-12-29T19:40:50.179Z,6.21
2022-12-29T19:43:17.627Z,6.25
2022-12-29T19:45:45.454Z,6.19
2022-12-29T19:48:18.872Z,6.19
2022-12-29T19:50:46.564Z,6.33
2022-12-29T19:53:14.524Z,6.28
2022-12-29T19:55:46.058Z,6.33
2022-12-29T19:58:13.300Z,6.41
2022-12-29T20:00:41.722Z,6.35
2022-12-29T20:03:09.243Z,6.30
2022-12-29T20:05:36.354Z,6.32
2022-12-29T20:08:03.121Z,6.28
2022-12-29T20:10:29.899Z,6.32
2022-12-29T20:12:56.608Z,6.31
2022-12-29T20:15:23.327Z,6.28
2022-12-29T20:20:37.392Z,6.34
2022-12-29T20:23:04.179Z,6.24
2022-12-29T20:25:47.166Z,6.22
2022-12-29T20:28:15.928Z,6.27
2022-12-29T20:30:43.255Z,6.33
2022-12-29T20:33:10.028Z,6.35
2022-12-29T20:35:37.410Z,6.33
2022-12-29T20:38:04.873Z,6.33
2022-12-29T20:40:31.576Z,6.31
2022-12-29T20:42:58.262Z,6.42
2022-12-29T20:45:25.157Z,6.35
2022-12-29T20:47:52.139Z,6.40
2022-12-29T20:50:19.025Z,6.38
2022-12-29T20:52:46.826Z,6.36
2022-12-29T20:55:13.851Z,6.29
2022-12-29T20:58:14.221Z,6.24
2022-12-29T21:00:30.417Z,6.12
2022-12-29T21:02:59.057Z,6.07
2022-12-29T21:05:27.045Z,6.24
2022-12-29T21:07:54.615Z,6.23
2022-12-29T21:10:22.405Z,6.34
2022-12-29T21:12:49.403Z,6.39
2022-12-29T21:15:16.482Z,6.40
2022-12-29T21:17:44.179Z,6.35
2022-12-29T21:20:19.973Z,6.35
2022-12-29T21:22:48.572Z,6.38
2022-12-29T21:25:15.874Z,6.38
2022-12-29T21:27:44.077Z,6.36
2022-12-29T21:30:12.007Z,6.34
2022-12-29T21:32:39.567Z,6.39
2022-12-29T21:35:06.848Z,6.29
2022-12-29T21:37:34.065Z,6.29
2022-12-29T21:40:00.846Z,6.18
2022-12-29T21:42:27.657Z,6.27
2022-12-29T21:45:19.820Z,6.30
2022-12-29T21:48:05.826Z,6.33
2022-12-29T21:50:32.863Z,6.32
2022-12-29T21:52:59.424Z,6.22
2022-12-29T21:55:26.095Z,6.18
2022-12-29T21:58:11.344Z,6.19
2022-12-29T22:00:56.598Z,6.14
2022-12-29T22:03:41.896Z,6.27
2022-12-29T22:06:30.267Z,6.25
2022-12-29T22:09:15.814Z,6.32
2022-12-29T22:12:00.873Z,6.29
2022-12-29T22:14:27.536Z,6.28
2022-12-29T22:16:54.137Z,6.24
2022-12-29T22:19:20.925Z,6.24
2022-12-29T22:21:47.591Z,6.15
2022-12-29T22:24:14.297Z,6.30
2022-12-29T22:26:40.886Z,6.23
2022-12-29T22:29:07.759Z,6.25
2022-12-29T22:31:34.478Z,6.26
2022-12-29T22:34:03.117Z,6.28
2022-12-29T22:36:30.364Z,6.25
2022-12-29T22:38:57.139Z,6.27
2022-12-29T22:41:24.265Z,6.30
2022-12-29T22:43:51.016Z,6.26
2022-12-29T22:46:18.157Z,6.23
2022-12-29T22:48:44.900Z,6.21
2022-12-29T22:51:12.010Z,6.20
2022-12-29T22:53:39.546Z,6.22
2022-12-29T22:56:10.257Z,6.37
2022-12-29T22:58:48.174Z,6.29
2022-12-29T23:01:17.520Z,6.21
2022-12-29T23:03:45.122Z,6.19
2022-12-29T23:06:13.945Z,6.19
2022-12-29T23:08:40.675Z,6.12
2022-12-29T23:11:10.494Z,6.26
2022-12-29T23:13:37.774Z,6.26
2022-12-29T23:16:05.240Z,6.33
2022-12-29T23:18:31.830Z,6.31
2022-12-29T23:20:58.774Z,6.24
2022-12-29T23:23:48.742Z,5.98
2022-12-29T23:26:18.268Z,5.73
2022-12-29T23:28:45.528Z,5.83
2022-12-29T23:31:12.583Z,5.88
2022-12-29T23:33:39.309Z,5.86
2022-12-29T23:36:06.598Z,5.81
2022-12-29T23:38:33.638Z,6.03
2022-12-29T23:41:00.589Z,6.05
2022-12-29T23:43:27.357Z,6.08
2022-12-29T23:45:53.994Z,6.09
2022-12-29T23:48:20.669Z,6.15
2022-12-29T23:50:47.358Z,6.13
2022-12-29T23:53:14.265Z,6.17
2022-12-29T23:55:43.021Z,6.19
2022-12-29T23:58:10.389Z,6.27
